sensor_id;sensor_type;location;lat;lon;timestamp;P1;durP1;ratioP1;P2;durP2;ratioP2
23179;SDS011;11758;45.756;11.432;2022-10-31T00:01:24;10.48;;;3.72;;
23179;SDS011;11758;45.756;11.432;2022-10-31T00:03:50;15.60;;;3.42;;
23179;SDS011;11758;45.756;11.432;2022-10-31T00:06:16;19.83;;;4.38;;
23179;SDS011;11758;45.756;11.432;2022-10-31T00:08:44;10.95;;;3.22;;
23179;SDS011;11758;45.756;11.432;2022-10-31T00:11:10;10.98;;;3.50;;
23179;SDS011;11758;45.756;11.432;2022-10-31T00:13:36;14.70;;;3.60;;
23179;SDS011;11758;45.756;11.432;2022-10-31T00:16:02;14.55;;;3.85;;
23179;SDS011;11758;45.756;11.432;2022-10-31T00:18:28;10.32;;;3.80;;
23179;SDS011;11758;45.756;11.432;2022-10-31T00:20:58;13.40;;;3.50;;
23179;SDS011;11758;45.756;11.432;2022-10-31T00:23:24;11.30;;;2.90;;
23179;SDS011;11758;45.756;11.432;2022-10-31T00:25:50;14.60;;;4.15;;
23179;SDS011;11758;45.756;11.432;2022-10-31T00:28:17;9.75;;;3.88;;
23179;SDS011;11758;45.756;11.432;2022-10-31T00:30:43;10.38;;;3.35;;
23179;SDS011;11758;45.756;11.432;2022-10-31T00:33:09;11.38;;;3.50;;
23179;SDS011;11758;45.756;11.432;2022-10-31T00:35:35;10.35;;;3.20;;
23179;SDS011;11758;45.756;11.432;2022-10-31T00:38:01;6.95;;;3.05;;
23179;SDS011;11758;45.756;11.432;2022-10-31T00:40:27;11.43;;;3.33;;
23179;SDS011;11758;45.756;11.432;2022-10-31T00:42:53;10.23;;;3.22;;
23179;SDS011;11758;45.756;11.432;2022-10-31T00:45:19;10.23;;;3.35;;
23179;SDS011;11758;45.756;11.432;2022-10-31T00:47:45;12.43;;;3.50;;
23179;SDS011;11758;45.756;11.432;2022-10-31T00:50:11;13.10;;;4.00;;
23179;SDS011;11758;45.756;11.432;2022-10-31T00:52:38;14.52;;;3.20;;
23179;SDS011;11758;45.756;11.432;2022-10-31T00:55:04;13.52;;;3.13;;
23179;SDS011;11758;45.756;11.432;2022-10-31T00:57:30;13.85;;;3.53;;
23179;SDS011;11758;45.756;11.432;2022-10-31T00:59:56;8.20;;;3.30;;
23179;SDS011;11758;45.756;11.432;2022-10-31T01:02:22;8.85;;;2.90;;
23179;SDS011;11758;45.756;11.432;2022-10-31T01:04:52;12.07;;;3.38;;
23179;SDS011;11758;45.756;11.432;2022-10-31T01:10:23;10.35;;;3.33;;
23179;SDS011;11758;45.756;11.432;2022-10-31T01:12:50;10.77;;;3.40;;
23179;SDS011;11758;45.756;11.432;2022-10-31T01:15:21;9.73;;;2.83;;
23179;SDS011;11758;45.756;11.432;2022-10-31T01:17:48;11.80;;;3.40;;
23179;SDS011;11758;45.756;11.432;2022-10-31T01:20:15;12.57;;;3.05;;
23179;SDS011;11758;45.756;11.432;2022-10-31T01:22:42;8.60;;;3.15;;
23179;SDS011;11758;45.756;11.432;2022-10-31T01:25:08;13.02;;;3.30;;
23179;SDS011;11758;45.756;11.432;2022-10-31T01:27:35;10.15;;;3.65;;
23179;SDS011;11758;45.756;11.432;2022-10-31T01:30:01;6.40;;;3.60;;
23179;SDS011;11758;45.756;11.432;2022-10-31T01:32:27;9.23;;;3.10;;
23179;SDS011;11758;45.756;11.432;2022-10-31T01:34:56;12.38;;;3.60;;
23179;SDS011;11758;45.756;11.432;2022-10-31T01:37:22;9.65;;;3.30;;
23179;SDS011;11758;45.756;11.432;2022-10-31T01:39:48;7.38;;;3.28;;
23179;SDS011;11758;45.756;11.432;2022-10-31T01:42:21;19.95;;;3.47;;
23179;SDS011;11758;45.756;11.432;2022-10-31T01:44:49;9.35;;;3.33;;
23179;SDS011;11758;45.756;11.432;2022-10-31T01:47:17;13.45;;;3.40;;
23179;SDS011;11758;45.756;11.432;2022-10-31T01:49:46;8.85;;;2.80;;
23179;SDS011;11758;45.756;11.432;2022-10-31T01:57:24;5.90;;;3.28;;
23179;SDS011;11758;45.756;11.432;2022-10-31T01:59:53;10.30;;;3.22;;
23179;SDS011;11758;45.756;11.432;2022-10-31T02:02:20;14.80;;;3.60;;
23179;SDS011;11758;45.756;11.432;2022-10-31T02:04:46;5.40;;;2.88;;
23179;SDS011;11758;45.756;11.432;2022-10-31T02:07:14;8.93;;;3.10;;
23179;SDS011;11758;45.756;11.432;2022-10-31T02:09:41;9.40;;;2.78;;
23179;SDS011;11758;45.756;11.432;2022-10-31T02:12:09;8.70;;;2.92;;
23179;SDS011;11758;45.756;11.432;2022-10-31T02:14:35;12.48;;;2.60;;
23179;SDS011;11758;45.756;11.432;2022-10-31T02:17:02;9.70;;;2.80;;
23179;SDS011;11758;45.756;11.432;2022-10-31T02:22:13;9.93;;;3.08;;
23179;SDS011;11758;45.756;11.432;2022-10-31T02:30:18;13.23;;;3.15;;
23179;SDS011;11758;45.756;11.432;2022-10-31T02:41:12;10.23;;;3.60;;
23179;SDS011;11758;45.756;11.432;2022-10-31T02:43:22;11.88;;;3.28;;
23179;SDS011;11758;45.756;11.432;2022-10-31T02:46:00;13.15;;;3.35;;
23179;SDS011;11758;45.756;11.432;2022-10-31T02:48:28;10.07;;;3.50;;
23179;SDS011;11758;45.756;11.432;2022-10-31T02:50:55;15.20;;;3.55;;
23179;SDS011;11758;45.756;11.432;2022-10-31T02:53:22;11.73;;;3.15;;
23179;SDS011;11758;45.756;11.432;2022-10-31T02:55:50;8.98;;;3.42;;
23179;SDS011;11758;45.756;11.432;2022-10-31T02:58:18;8.75;;;3.28;;
23179;SDS011;11758;45.756;11.432;2022-10-31T03:00:56;6.55;;;3.08;;
23179;SDS011;11758;45.756;11.432;2022-10-31T03:08:55;12.18;;;3.70;;
23179;SDS011;11758;45.756;11.432;2022-10-31T03:11:28;11.63;;;3.08;;
23179;SDS011;11758;45.756;11.432;2022-10-31T03:14:04;11.07;;;3.58;;
23179;SDS011;11758;45.756;11.432;2022-10-31T03:19:12;13.77;;;3.40;;
23179;SDS011;11758;45.756;11.432;2022-10-31T03:21:49;7.80;;;3.70;;
23179;SDS011;11758;45.756;11.432;2022-10-31T03:24:16;9.82;;;3.03;;
23179;SDS011;11758;45.756;11.432;2022-10-31T03:26:46;16.40;;;3.85;;
23179;SDS011;11758;45.756;11.432;2022-10-31T03:29:14;8.70;;;3.08;;
23179;SDS011;11758;45.756;11.432;2022-10-31T03:34:36;10.10;;;3.15;;
23179;SDS011;11758;45.756;11.432;2022-10-31T03:37:04;9.10;;;3.45;;
23179;SDS011;11758;45.756;11.432;2022-10-31T03:39:32;10.77;;;3.75;;
23179;SDS011;11758;45.756;11.432;2022-10-31T03:42:10;11.52;;;3.10;;
23179;SDS011;11758;45.756;11.432;2022-10-31T03:44:37;12.27;;;3.80;;
23179;SDS011;11758;45.756;11.432;2022-10-31T03:47:03;12.63;;;3.85;;
23179;SDS011;11758;45.756;11.432;2022-10-31T03:49:30;8.90;;;3.08;;
23179;SDS011;11758;45.756;11.432;2022-10-31T03:52:02;11.38;;;3.58;;
23179;SDS011;11758;45.756;11.432;2022-10-31T03:54:44;10.93;;;4.15;;
23179;SDS011;11758;45.756;11.432;2022-10-31T03:59:37;16.48;;;4.35;;
23179;SDS011;11758;45.756;11.432;2022-10-31T04:02:06;10.50;;;4.10;;
23179;SDS011;11758;45.756;11.432;2022-10-31T04:04:33;13.98;;;3.95;;
23179;SDS011;11758;45.756;11.432;2022-10-31T04:07:00;13.20;;;4.38;;
23179;SDS011;11758;45.756;11.432;2022-10-31T04:09:27;8.32;;;4.00;;
23179;SDS011;11758;45.756;11.432;2022-10-31T04:11:54;12.73;;;3.88;;
23179;SDS011;11758;45.756;11.432;2022-10-31T04:14:22;12.10;;;4.07;;
23179;SDS011;11758;45.756;11.432;2022-10-31T04:16:50;15.55;;;4.53;;
23179;SDS011;11758;45.756;11.432;2022-10-31T04:19:16;11.45;;;3.95;;
23179;SDS011;11758;45.756;11.432;2022-10-31T04:21:42;17.42;;;4.43;;
23179;SDS011;11758;45.756;11.432;2022-10-31T04:24:08;15.52;;;4.00;;
23179;SDS011;11758;45.756;11.432;2022-10-31T04:26:34;13.20;;;3.85;;
23179;SDS011;11758;45.756;11.432;2022-10-31T04:29:00;13.02;;;4.60;;
23179;SDS011;11758;45.756;11.432;2022-10-31T04:31:27;11.52;;;4.82;;
23179;SDS011;11758;45.756;11.432;2022-10-31T04:33:53;15.95;;;3.97;;
23179;SDS011;11758;45.756;11.432;2022-10-31T04:36:19;16.77;;;3.80;;
23179;SDS011;11758;45.756;11.432;2022-10-31T04:38:45;12.52;;;4.25;;
23179;SDS011;11758;45.756;11.432;2022-10-31T04:41:11;14.65;;;4.65;;
23179;SDS011;11758;45.756;11.432;2022-10-31T04:43:37;11.45;;;4.40;;
23179;SDS011;11758;45.756;11.432;2022-10-31T04:46:03;17.80;;;4.50;;
23179;SDS011;11758;45.756;11.432;2022-10-31T04:48:29;11.65;;;4.13;;
23179;SDS011;11758;45.756;11.432;2022-10-31T04:50:59;10.95;;;4.40;;
23179;SDS011;11758;45.756;11.432;2022-10-31T04:53:26;13.10;;;4.80;;
23179;SDS011;11758;45.756;11.432;2022-10-31T04:55:52;16.75;;;4.88;;
23179;SDS011;11758;45.756;11.432;2022-10-31T04:58:18;14.43;;;4.15;;
23179;SDS011;11758;45.756;11.432;2022-10-31T05:00:44;16.45;;;4.03;;
23179;SDS011;11758;45.756;11.432;2022-10-31T05:03:10;18.90;;;4.38;;
23179;SDS011;11758;45.756;11.432;2022-10-31T05:05:36;15.32;;;4.38;;
23179;SDS011;11758;45.756;11.432;2022-10-31T05:08:02;18.85;;;5.25;;
23179;SDS011;11758;45.756;11.432;2022-10-31T05:10:29;17.27;;;5.13;;
23179;SDS011;11758;45.756;11.432;2022-10-31T05:12:56;11.75;;;4.97;;
23179;SDS011;11758;45.756;11.432;2022-10-31T05:15:23;17.55;;;5.75;;
23179;SDS011;11758;45.756;11.432;2022-10-31T05:17:50;17.13;;;5.93;;
23179;SDS011;11758;45.756;11.432;2022-10-31T05:20:16;17.15;;;5.43;;
23179;SDS011;11758;45.756;11.432;2022-10-31T05:22:47;16.00;;;4.72;;
23179;SDS011;11758;45.756;11.432;2022-10-31T05:25:13;12.98;;;4.85;;
23179;SDS011;11758;45.756;11.432;2022-10-31T05:27:43;14.05;;;5.63;;
23179;SDS011;11758;45.756;11.432;2022-10-31T05:30:09;13.48;;;5.07;;
23179;SDS011;11758;45.756;11.432;2022-10-31T05:32:37;15.68;;;5.00;;
23179;SDS011;11758;45.756;11.432;2022-10-31T05:35:04;22.70;;;5.50;;
23179;SDS011;11758;45.756;11.432;2022-10-31T05:37:30;12.38;;;4.63;;
23179;SDS011;11758;45.756;11.432;2022-10-31T05:39:56;15.63;;;4.97;;
23179;SDS011;11758;45.756;11.432;2022-10-31T05:42:22;14.05;;;4.78;;
23179;SDS011;11758;45.756;11.432;2022-10-31T05:44:48;15.63;;;4.57;;
23179;SDS011;11758;45.756;11.432;2022-10-31T05:47:14;13.02;;;4.32;;
23179;SDS011;11758;45.756;11.432;2022-10-31T05:49:40;17.13;;;4.22;;
23179;SDS011;11758;45.756;11.432;2022-10-31T05:52:06;16.25;;;4.50;;
23179;SDS011;11758;45.756;11.432;2022-10-31T05:54:32;11.90;;;4.88;;
23179;SDS011;11758;45.756;11.432;2022-10-31T05:56:58;13.45;;;4.60;;
23179;SDS011;11758;45.756;11.432;2022-10-31T05:59:24;12.30;;;4.28;;
23179;SDS011;11758;45.756;11.432;2022-10-31T06:01:50;18.02;;;5.18;;
23179;SDS011;11758;45.756;11.432;2022-10-31T06:04:17;16.05;;;5.13;;
23179;SDS011;11758;45.756;11.432;2022-10-31T06:06:43;12.02;;;5.22;;
23179;SDS011;11758;45.756;11.432;2022-10-31T06:09:09;11.98;;;4.43;;
23179;SDS011;11758;45.756;11.432;2022-10-31T06:11:35;10.05;;;3.88;;
23179;SDS011;11758;45.756;11.432;2022-10-31T06:14:01;18.00;;;4.28;;
23179;SDS011;11758;45.756;11.432;2022-10-31T06:16:27;12.05;;;4.18;;
23179;SDS011;11758;45.756;11.432;2022-10-31T06:18:53;11.07;;;4.28;;
23179;SDS011;11758;45.756;11.432;2022-10-31T06:21:19;11.10;;;4.00;;
23179;SDS011;11758;45.756;11.432;2022-10-31T06:23:45;14.18;;;3.83;;
23179;SDS011;11758;45.756;11.432;2022-10-31T06:26:11;9.02;;;3.47;;
23179;SDS011;11758;45.756;11.432;2022-10-31T06:28:38;19.63;;;3.90;;
23179;SDS011;11758;45.756;11.432;2022-10-31T06:31:04;9.40;;;3.67;;
23179;SDS011;11758;45.756;11.432;2022-10-31T06:33:30;8.50;;;3.40;;
23179;SDS011;11758;45.756;11.432;2022-10-31T06:35:56;13.32;;;4.13;;
23179;SDS011;11758;45.756;11.432;2022-10-31T06:38:22;16.20;;;3.90;;
23179;SDS011;11758;45.756;11.432;2022-10-31T06:40:49;12.90;;;3.70;;
23179;SDS011;11758;45.756;11.432;2022-10-31T06:43:15;8.05;;;3.85;;
23179;SDS011;11758;45.756;11.432;2022-10-31T06:45:41;12.27;;;3.85;;
23179;SDS011;11758;45.756;11.432;2022-10-31T06:48:07;7.82;;;3.10;;
23179;SDS011;11758;45.756;11.432;2022-10-31T06:50:33;15.52;;;3.97;;
23179;SDS011;11758;45.756;11.432;2022-10-31T06:52:59;14.52;;;3.97;;
23179;SDS011;11758;45.756;11.432;2022-10-31T06:55:27;12.45;;;4.10;;
23179;SDS011;11758;45.756;11.432;2022-10-31T06:57:53;22.77;;;3.80;;
23179;SDS011;11758;45.756;11.432;2022-10-31T07:00:20;16.17;;;4.03;;
23179;SDS011;11758;45.756;11.432;2022-10-31T07:02:56;14.88;;;4.25;;
23179;SDS011;11758;45.756;11.432;2022-10-31T07:05:24;8.77;;;4.18;;
23179;SDS011;11758;45.756;11.432;2022-10-31T07:07:54;11.70;;;4.10;;
23179;SDS011;11758;45.756;11.432;2022-10-31T07:10:21;16.10;;;4.32;;
23179;SDS011;11758;45.756;11.432;2022-10-31T07:12:48;11.48;;;4.07;;
23179;SDS011;11758;45.756;11.432;2022-10-31T07:15:14;12.90;;;3.90;;
23179;SDS011;11758;45.756;11.432;2022-10-31T07:17:40;13.15;;;3.58;;
23179;SDS011;11758;45.756;11.432;2022-10-31T07:20:06;15.43;;;3.63;;
23179;SDS011;11758;45.756;11.432;2022-10-31T07:22:36;8.38;;;3.28;;
23179;SDS011;11758;45.756;11.432;2022-10-31T07:25:02;9.20;;;2.88;;
23179;SDS011;11758;45.756;11.432;2022-10-31T07:27:35;12.45;;;3.38;;
23179;SDS011;11758;45.756;11.432;2022-10-31T07:30:01;16.13;;;5.13;;
23179;SDS011;11758;45.756;11.432;2022-10-31T07:32:27;12.95;;;3.25;;
23179;SDS011;11758;45.756;11.432;2022-10-31T07:34:53;14.05;;;3.28;;
23179;SDS011;11758;45.756;11.432;2022-10-31T07:37:19;12.90;;;2.75;;
23179;SDS011;11758;45.756;11.432;2022-10-31T07:39:45;17.77;;;3.38;;
23179;SDS011;11758;45.756;11.432;2022-10-31T07:42:12;12.18;;;3.08;;
23179;SDS011;11758;45.756;11.432;2022-10-31T07:44:38;12.77;;;2.63;;
23179;SDS011;11758;45.756;11.432;2022-10-31T07:47:04;10.80;;;2.97;;
23179;SDS011;11758;45.756;11.432;2022-10-31T07:49:30;17.10;;;3.78;;
23179;SDS011;11758;45.756;11.432;2022-10-31T07:51:56;11.18;;;3.08;;
23179;SDS011;11758;45.756;11.432;2022-10-31T07:54:22;8.50;;;2.70;;
23179;SDS011;11758;45.756;11.432;2022-10-31T07:56:48;10.50;;;2.78;;
23179;SDS011;11758;45.756;11.432;2022-10-31T07:59:14;14.43;;;3.47;;
23179;SDS011;11758;45.756;11.432;2022-10-31T08:01:40;9.45;;;3.72;;
23179;SDS011;11758;45.756;11.432;2022-10-31T08:04:06;20.35;;;4.72;;
23179;SDS011;11758;45.756;11.432;2022-10-31T08:06:32;17.88;;;3.38;;
23179;SDS011;11758;45.756;11.432;2022-10-31T08:08:59;11.40;;;3.17;;
23179;SDS011;11758;45.756;11.432;2022-10-31T08:11:25;20.70;;;3.80;;
23179;SDS011;11758;45.756;11.432;2022-10-31T08:13:51;23.08;;;4.18;;
23179;SDS011;11758;45.756;11.432;2022-10-31T08:16:17;23.40;;;4.28;;
23179;SDS011;11758;45.756;11.432;2022-10-31T08:18:43;11.75;;;3.45;;
23179;SDS011;11758;45.756;11.432;2022-10-31T08:21:09;13.05;;;3.10;;
23179;SDS011;11758;45.756;11.432;2022-10-31T08:23:35;14.75;;;3.58;;
23179;SDS011;11758;45.756;11.432;2022-10-31T08:26:01;15.30;;;3.65;;
23179;SDS011;11758;45.756;11.432;2022-10-31T08:28:27;13.60;;;3.15;;
23179;SDS011;11758;45.756;11.432;2022-10-31T08:30:53;17.17;;;3.85;;
23179;SDS011;11758;45.756;11.432;2022-10-31T08:33:19;18.58;;;4.95;;
23179;SDS011;11758;45.756;11.432;2022-10-31T08:35:46;13.40;;;4.50;;
23179;SDS011;11758;45.756;11.432;2022-10-31T08:38:12;18.83;;;6.25;;
23179;SDS011;11758;45.756;11.432;2022-10-31T08:40:39;15.30;;;5.85;;
23179;SDS011;11758;45.756;11.432;2022-10-31T08:43:06;20.17;;;7.38;;
23179;SDS011;11758;45.756;11.432;2022-10-31T08:45:33;20.83;;;7.40;;
23179;SDS011;11758;45.756;11.432;2022-10-31T08:48:00;22.40;;;8.13;;
23179;SDS011;11758;45.756;11.432;2022-10-31T08:50:27;27.92;;;14.85;;
23179;SDS011;11758;45.756;11.432;2022-10-31T08:52:53;19.88;;;8.90;;
23179;SDS011;11758;45.756;11.432;2022-10-31T08:55:25;30.30;;;8.50;;
23179;SDS011;11758;45.756;11.432;2022-10-31T08:57:57;24.73;;;8.40;;
23179;SDS011;11758;45.756;11.432;2022-10-31T09:00:23;17.98;;;7.88;;
23179;SDS011;11758;45.756;11.432;2022-10-31T09:02:56;28.55;;;9.20;;
23179;SDS011;11758;45.756;11.432;2022-10-31T09:05:22;21.85;;;8.38;;
23179;SDS011;11758;45.756;11.432;2022-10-31T09:07:48;23.40;;;9.40;;
23179;SDS011;11758;45.756;11.432;2022-10-31T09:10:15;25.02;;;9.65;;
23179;SDS011;11758;45.756;11.432;2022-10-31T09:12:41;19.48;;;9.30;;
23179;SDS011;11758;45.756;11.432;2022-10-31T09:15:07;23.70;;;7.95;;
23179;SDS011;11758;45.756;11.432;2022-10-31T09:17:33;27.63;;;8.85;;
23179;SDS011;11758;45.756;11.432;2022-10-31T09:19:59;19.23;;;8.00;;
23179;SDS011;11758;45.756;11.432;2022-10-31T09:22:25;21.50;;;7.25;;
23179;SDS011;11758;45.756;11.432;2022-10-31T09:24:52;24.00;;;7.50;;
23179;SDS011;11758;45.756;11.432;2022-10-31T09:27:18;19.98;;;7.57;;
23179;SDS011;11758;45.756;11.432;2022-10-31T09:29:44;25.33;;;7.43;;
23179;SDS011;11758;45.756;11.432;2022-10-31T09:32:10;18.38;;;5.97;;
23179;SDS011;11758;45.756;11.432;2022-10-31T09:34:36;23.58;;;7.07;;
23179;SDS011;11758;45.756;11.432;2022-10-31T09:37:02;24.25;;;6.75;;
23179;SDS011;11758;45.756;11.432;2022-10-31T09:39:28;31.83;;;7.60;;
23179;SDS011;11758;45.756;11.432;2022-10-31T09:44:23;16.45;;;6.78;;
23179;SDS011;11758;45.756;11.432;2022-10-31T09:46:58;20.75;;;6.90;;
23179;SDS011;11758;45.756;11.432;2022-10-31T09:52:12;20.58;;;6.45;;
23179;SDS011;11758;45.756;11.432;2022-10-31T09:54:45;18.92;;;6.22;;
23179;SDS011;11758;45.756;11.432;2022-10-31T09:57:12;21.17;;;6.55;;
23179;SDS011;11758;45.756;11.432;2022-10-31T09:59:39;26.08;;;6.80;;
23179;SDS011;11758;45.756;11.432;2022-10-31T10:02:23;24.13;;;7.60;;
23179;SDS011;11758;45.756;11.432;2022-10-31T10:07:25;22.23;;;7.15;;
23179;SDS011;11758;45.756;11.432;2022-10-31T10:09:58;22.75;;;7.65;;
23179;SDS011;11758;45.756;11.432;2022-10-31T10:12:36;33.25;;;10.40;;
23179;SDS011;11758;45.756;11.432;2022-10-31T10:15:15;31.15;;;9.45;;
23179;SDS011;11758;45.756;11.432;2022-10-31T10:17:46;17.40;;;7.47;;
23179;SDS011;11758;45.756;11.432;2022-10-31T10:20:25;29.88;;;9.10;;
23179;SDS011;11758;45.756;11.432;2022-10-31T10:23:11;26.90;;;8.15;;
23179;SDS011;11758;45.756;11.432;2022-10-31T10:25:41;24.35;;;8.02;;
23179;SDS011;11758;45.756;11.432;2022-10-31T10:28:17;30.08;;;8.68;;
23179;SDS011;11758;45.756;11.432;2022-10-31T10:30:53;25.50;;;7.85;;
23179;SDS011;11758;45.756;11.432;2022-10-31T10:34:10;24.13;;;8.07;;
23179;SDS011;11758;45.756;11.432;2022-10-31T10:36:11;29.08;;;7.32;;
23179;SDS011;11758;45.756;11.432;2022-10-31T10:41:28;29.15;;;7.53;;
23179;SDS011;11758;45.756;11.432;2022-10-31T10:44:42;18.88;;;6.93;;
23179;SDS011;11758;45.756;11.432;2022-10-31T10:47:31;26.08;;;6.22;;
23179;SDS011;11758;45.756;11.432;2022-10-31T10:50:18;19.92;;;6.47;;
23179;SDS011;11758;45.756;11.432;2022-10-31T10:58:39;30.95;;;7.22;;
23179;SDS011;11758;45.756;11.432;2022-10-31T11:01:14;17.40;;;6.50;;
23179;SDS011;11758;45.756;11.432;2022-10-31T11:03:41;24.27;;;6.60;;
23179;SDS011;11758;45.756;11.432;2022-10-31T11:06:45;26.17;;;6.53;;
23179;SDS011;11758;45.756;11.432;2022-10-31T11:09:10;20.95;;;6.95;;
23179;SDS011;11758;45.756;11.432;2022-10-31T11:11:36;18.60;;;7.25;;
23179;SDS011;11758;45.756;11.432;2022-10-31T11:14:05;31.80;;;8.95;;
23179;SDS011;11758;45.756;11.432;2022-10-31T11:16:38;31.70;;;11.27;;
23179;SDS011;11758;45.756;11.432;2022-10-31T11:19:26;37.85;;;12.15;;
23179;SDS011;11758;45.756;11.432;2022-10-31T11:21:52;39.00;;;17.05;;
23179;SDS011;11758;45.756;11.432;2022-10-31T11:24:20;32.70;;;15.02;;
23179;SDS011;11758;45.756;11.432;2022-10-31T11:26:49;33.58;;;13.90;;
23179;SDS011;11758;45.756;11.432;2022-10-31T11:29:23;45.53;;;17.88;;
23179;SDS011;11758;45.756;11.432;2022-10-31T11:31:53;34.67;;;13.98;;
23179;SDS011;11758;45.756;11.432;2022-10-31T11:34:33;33.30;;;12.10;;
23179;SDS011;11758;45.756;11.432;2022-10-31T11:39:49;47.15;;;17.52;;
23179;SDS011;11758;45.756;11.432;2022-10-31T11:42:21;37.25;;;16.13;;
23179;SDS011;11758;45.756;11.432;2022-10-31T11:44:49;39.78;;;16.27;;
23179;SDS011;11758;45.756;11.432;2022-10-31T11:47:23;36.20;;;17.60;;
23179;SDS011;11758;45.756;11.432;2022-10-31T11:49:52;40.20;;;19.33;;
23179;SDS011;11758;45.756;11.432;2022-10-31T11:54:55;47.45;;;18.63;;
23179;SDS011;11758;45.756;11.432;2022-10-31T12:03:04;38.30;;;17.20;;
23179;SDS011;11758;45.756;11.432;2022-10-31T12:05:31;36.30;;;19.38;;
23179;SDS011;11758;45.756;11.432;2022-10-31T12:16:31;35.97;;;17.02;;
23179;SDS011;11758;45.756;11.432;2022-10-31T12:19:03;36.72;;;17.88;;
23179;SDS011;11758;45.756;11.432;2022-10-31T12:26:30;35.40;;;17.83;;
23179;SDS011;11758;45.756;11.432;2022-10-31T12:29:02;47.53;;;19.05;;
23179;SDS011;11758;45.756;11.432;2022-10-31T12:46:23;36.80;;;15.43;;
23179;SDS011;11758;45.756;11.432;2022-10-31T12:49:02;31.95;;;16.55;;
23179;SDS011;11758;45.756;11.432;2022-10-31T12:51:37;27.73;;;15.00;;
23179;SDS011;11758;45.756;11.432;2022-10-31T12:59:18;38.00;;;17.17;;
23179;SDS011;11758;45.756;11.432;2022-10-31T13:04:54;49.53;;;19.20;;
23179;SDS011;11758;45.756;11.432;2022-10-31T13:07:43;41.63;;;18.50;;
23179;SDS011;11758;45.756;11.432;2022-10-31T13:13:09;45.08;;;19.33;;
23179;SDS011;11758;45.756;11.432;2022-10-31T13:16:21;43.63;;;18.75;;
23179;SDS011;11758;45.756;11.432;2022-10-31T13:21:25;42.80;;;18.20;;
23179;SDS011;11758;45.756;11.432;2022-10-31T13:23:56;38.22;;;16.45;;
23179;SDS011;11758;45.756;11.432;2022-10-31T13:26:44;40.47;;;19.15;;
23179;SDS011;11758;45.756;11.432;2022-10-31T13:31:45;32.70;;;15.68;;
23179;SDS011;11758;45.756;11.432;2022-10-31T13:34:23;39.72;;;17.02;;
23179;SDS011;11758;45.756;11.432;2022-10-31T13:39:49;34.70;;;16.60;;
23179;SDS011;11758;45.756;11.432;2022-10-31T13:42:50;39.03;;;16.05;;
23179;SDS011;11758;45.756;11.432;2022-10-31T13:45:12;40.33;;;15.85;;
23179;SDS011;11758;45.756;11.432;2022-10-31T13:47:40;41.97;;;15.98;;
23179;SDS011;11758;45.756;11.432;2022-10-31T13:52:50;35.45;;;14.20;;
23179;SDS011;11758;45.756;11.432;2022-10-31T13:58:03;35.35;;;14.27;;
23179;SDS011;11758;45.756;11.432;2022-10-31T14:00:31;30.75;;;14.02;;
23179;SDS011;11758;45.756;11.432;2022-10-31T14:03:00;34.90;;;14.95;;
23179;SDS011;11758;45.756;11.432;2022-10-31T14:07:56;34.50;;;15.18;;
23179;SDS011;11758;45.756;11.432;2022-10-31T14:10:27;29.40;;;12.40;;
23179;SDS011;11758;45.756;11.432;2022-10-31T14:15:40;24.92;;;11.00;;
23179;SDS011;11758;45.756;11.432;2022-10-31T14:18:25;34.72;;;12.73;;
23179;SDS011;11758;45.756;11.432;2022-10-31T14:20:54;26.27;;;11.43;;
23179;SDS011;11758;45.756;11.432;2022-10-31T14:26:07;35.40;;;12.38;;
23179;SDS011;11758;45.756;11.432;2022-10-31T14:28:42;26.60;;;12.48;;
23179;SDS011;11758;45.756;11.432;2022-10-31T14:31:27;30.50;;;13.10;;
23179;SDS011;11758;45.756;11.432;2022-10-31T14:33:53;32.17;;;11.48;;
23179;SDS011;11758;45.756;11.432;2022-10-31T14:44:18;30.98;;;12.32;;
23179;SDS011;11758;45.756;11.432;2022-10-31T14:51:47;29.40;;;11.93;;
23179;SDS011;11758;45.756;11.432;2022-10-31T14:54:15;30.55;;;12.95;;
23179;SDS011;11758;45.756;11.432;2022-10-31T14:56:53;31.33;;;12.85;;
23179;SDS011;11758;45.756;11.432;2022-10-31T14:59:20;29.13;;;12.88;;
23179;SDS011;11758;45.756;11.432;2022-10-31T15:01:58;31.25;;;12.63;;
23179;SDS011;11758;45.756;11.432;2022-10-31T15:04:26;25.63;;;12.52;;
23179;SDS011;11758;45.756;11.432;2022-10-31T15:09:27;28.27;;;12.63;;
23179;SDS011;11758;45.756;11.432;2022-10-31T15:11:55;28.08;;;12.73;;
23179;SDS011;11758;45.756;11.432;2022-10-31T15:14:22;29.52;;;14.70;;
23179;SDS011;11758;45.756;11.432;2022-10-31T15:16:49;33.05;;;13.63;;
23179;SDS011;11758;45.756;11.432;2022-10-31T15:19:20;37.63;;;16.05;;
23179;SDS011;11758;45.756;11.432;2022-10-31T15:21:47;27.63;;;14.13;;
23179;SDS011;11758;45.756;11.432;2022-10-31T15:24:15;36.35;;;15.85;;
23179;SDS011;11758;45.756;11.432;2022-10-31T15:26:44;39.25;;;17.13;;
23179;SDS011;11758;45.756;11.432;2022-10-31T15:29:13;36.47;;;16.42;;
23179;SDS011;11758;45.756;11.432;2022-10-31T15:31:49;36.72;;;16.17;;
23179;SDS011;11758;45.756;11.432;2022-10-31T15:34:26;31.05;;;16.48;;
23179;SDS011;11758;45.756;11.432;2022-10-31T15:36:54;40.53;;;18.42;;
23179;SDS011;11758;45.756;11.432;2022-10-31T15:39:21;33.67;;;16.60;;
23179;SDS011;11758;45.756;11.432;2022-10-31T15:41:56;38.22;;;17.48;;
23179;SDS011;11758;45.756;11.432;2022-10-31T15:44:24;50.25;;;17.95;;
23179;SDS011;11758;45.756;11.432;2022-10-31T15:46:57;39.97;;;17.38;;
23179;SDS011;11758;45.756;11.432;2022-10-31T15:49:32;36.95;;;17.15;;
23179;SDS011;11758;45.756;11.432;2022-10-31T15:52:32;37.55;;;14.90;;
23179;SDS011;11758;45.756;11.432;2022-10-31T15:54:52;34.47;;;14.90;;
23179;SDS011;11758;45.756;11.432;2022-10-31T15:57:20;34.83;;;15.32;;
23179;SDS011;11758;45.756;11.432;2022-10-31T15:59:47;33.42;;;13.70;;
23179;SDS011;11758;45.756;11.432;2022-10-31T16:02:17;23.75;;;11.60;;
23179;SDS011;11758;45.756;11.432;2022-10-31T16:04:57;26.80;;;11.35;;
23179;SDS011;11758;45.756;11.432;2022-10-31T16:07:24;31.50;;;11.23;;
23179;SDS011;11758;45.756;11.432;2022-10-31T16:09:51;22.45;;;10.52;;
23179;SDS011;11758;45.756;11.432;2022-10-31T16:12:18;37.05;;;14.57;;
23179;SDS011;11758;45.756;11.432;2022-10-31T16:14:44;28.65;;;11.60;;
23179;SDS011;11758;45.756;11.432;2022-10-31T16:17:12;27.90;;;11.23;;
23179;SDS011;11758;45.756;11.432;2022-10-31T16:19:44;26.33;;;11.98;;
23179;SDS011;11758;45.756;11.432;2022-10-31T16:22:14;51.55;;;26.65;;
23179;SDS011;11758;45.756;11.432;2022-10-31T16:24:45;28.83;;;15.15;;
23179;SDS011;11758;45.756;11.432;2022-10-31T16:27:19;32.58;;;14.57;;
23179;SDS011;11758;45.756;11.432;2022-10-31T16:29:50;38.92;;;20.08;;
23179;SDS011;11758;45.756;11.432;2022-10-31T16:32:34;37.60;;;22.10;;
23179;SDS011;11758;45.756;11.432;2022-10-31T16:37:39;39.33;;;16.27;;
23179;SDS011;11758;45.756;11.432;2022-10-31T16:40:10;34.40;;;15.13;;
23179;SDS011;11758;45.756;11.432;2022-10-31T16:42:41;33.08;;;15.82;;
23179;SDS011;11758;45.756;11.432;2022-10-31T16:45:12;36.72;;;14.82;;
23179;SDS011;11758;45.756;11.432;2022-10-31T16:47:40;32.60;;;14.43;;
23179;SDS011;11758;45.756;11.432;2022-10-31T16:50:12;43.25;;;16.45;;
23179;SDS011;11758;45.756;11.432;2022-10-31T16:52:38;34.67;;;15.93;;
23179;SDS011;11758;45.756;11.432;2022-10-31T16:55:10;34.65;;;14.25;;